createdAt,value
2022-09-01T00:00:13.394Z,26.60
2022-09-01T00:02:43.456Z,26.70
2022-09-01T00:05:13.319Z,26.70
2022-09-01T00:07:42.168Z,26.70
2022-09-01T00:10:12.640Z,26.70
2022-09-01T00:12:41.370Z,26.70
2022-09-01T00:15:12.662Z,26.70
2022-09-01T00:17:41.405Z,26.70
2022-09-01T00:20:10.959Z,26.70
2022-09-01T00:22:39.570Z,26.70
2022-09-01T00:25:09.027Z,26.70
2022-09-01T00:27:38.781Z,26.70
2022-09-01T00:30:09.701Z,26.60
2022-09-01T00:32:38.285Z,26.70
2022-09-01T00:35:08.834Z,26.70
2022-09-01T00:37:37.297Z,26.60
2022-09-01T00:40:07.390Z,26.60
2022-09-01T00:42:35.859Z,26.60
2022-09-01T00:45:07.591Z,26.60
2022-09-01T00:47:37.806Z,26.50
2022-09-01T00:50:09.228Z,26.40
2022-09-01T00:52:42.925Z,26.40
2022-09-01T00:55:14.187Z,26.40
2022-09-01T00:57:43.395Z,26.40
2022-09-01T01:00:18.901Z,26.40
2022-09-01T01:02:49.374Z,26.40
2022-09-01T01:05:18.262Z,26.50
2022-09-01T01:07:47.997Z,26.50
2022-09-01T01:10:18.383Z,26.50
2022-09-01T01:12:47.281Z,26.40
2022-09-01T01:15:17.432Z,26.40
2022-09-01T01:17:46.349Z,26.40
2022-09-01T01:20:35.909Z,26.50
2022-09-01T01:23:12.277Z,26.40
2022-09-01T01:25:44.824Z,26.30
2022-09-01T01:28:15.977Z,26.40
2022-09-01T01:30:51.265Z,26.40
2022-09-01T01:33:21.995Z,26.40
2022-09-01T01:35:53.364Z,26.30
2022-09-01T01:38:23.136Z,26.40
2022-09-01T01:40:55.071Z,26.40
2022-09-01T01:43:24.070Z,26.30
2022-09-01T01:45:55.563Z,26.30
2022-09-01T01:48:25.216Z,26.30
2022-09-01T01:50:55.148Z,26.40
2022-09-01T01:53:23.948Z,26.40
2022-09-01T01:55:54.078Z,26.40
2022-09-01T01:58:24.864Z,26.40
2022-09-01T02:00:56.162Z,26.40
2022-09-01T02:03:30.924Z,26.40
2022-09-01T02:06:08.049Z,26.40
2022-09-01T02:08:38.109Z,26.40
2022-09-01T02:11:09.595Z,26.40
2022-09-01T02:13:38.228Z,26.40
2022-09-01T02:16:13.436Z,26.40
2022-09-01T02:18:48.273Z,26.40
2022-09-01T02:21:20.607Z,26.40
2022-09-01T02:23:50.986Z,26.40
2022-09-01T02:26:23.927Z,26.40
2022-09-01T02:28:55.753Z,26.40
2022-09-01T02:31:25.438Z,26.30
2022-09-01T02:33:54.941Z,26.20
2022-09-01T02:36:25.899Z,26.20
2022-09-01T02:38:56.877Z,26.20
2022-09-01T02:41:30.249Z,26.20
2022-09-01T02:44:02.500Z,26.20
2022-09-01T02:46:32.100Z,26.20
2022-09-01T02:49:01.771Z,26.20
2022-09-01T02:51:30.494Z,26.20
2022-09-01T02:53:59.224Z,26.30
2022-09-01T02:56:30.056Z,26.30
2022-09-01T02:59:00.372Z,26.30
2022-09-01T03:01:31.488Z,26.30
2022-09-01T03:04:01.953Z,26.30
2022-09-01T03:06:34.700Z,26.20
2022-09-01T03:09:06.488Z,26.20
2022-09-01T03:11:39.252Z,26.20
2022-09-01T03:14:08.919Z,26.20
2022-09-01T03:16:38.215Z,26.20
2022-09-01T03:19:09.135Z,26.20
2022-09-01T03:21:41.061Z,26.10
2022-09-01T03:24:10.724Z,26.10
2022-09-01T03:26:40.835Z,26.10
2022-09-01T03:29:10.213Z,26.00
2022-09-01T03:31:39.627Z,26.00
2022-09-01T03:34:11.249Z,26.10
2022-09-01T03:36:50.353Z,26.00
2022-09-01T03:39:19.466Z,26.00
2022-09-01T03:41:49.866Z,26.00
2022-09-01T03:44:18.357Z,26.00
2022-09-01T03:46:46.893Z,26.00
2022-09-01T03:49:15.721Z,26.00
2022-09-01T03:51:45.390Z,26.00
2022-09-01T03:54:14.761Z,25.90
2022-09-01T03:56:44.250Z,25.90
2022-09-01T03:59:17.042Z,25.90
2022-09-01T04:01:46.704Z,25.90
2022-09-01T04:04:16.728Z,25.80
2022-09-01T04:06:46.538Z,25.90
2022-09-01T04:09:15.644Z,25.90
2022-09-01T04:11:46.464Z,25.90
2022-09-01T04:14:16.786Z,25.90
2022-09-01T04:17:03.030Z,25.90
2022-09-01T04:19:36.685Z,25.80
2022-09-01T04:22:05.633Z,25.80
2022-09-01T04:24:35.348Z,25.80
2022-09-01T04:27:04.570Z,25.80
2022-09-01T04:29:34.436Z,25.70
2022-09-01T04:32:05.653Z,25.70
2022-09-01T04:34:38.013Z,25.70
2022-09-01T04:37:09.978Z,25.70
2022-09-01T04:39:39.460Z,25.70
2022-09-01T04:42:09.396Z,25.70
2022-09-01T04:44:40.821Z,25.70
2022-09-01T04:47:11.042Z,25.60
2022-09-01T04:50:32.016Z,25.70
2022-09-01T04:56:05.806Z,25.70
2022-09-01T04:58:35.212Z,25.70
2022-09-01T05:01:15.614Z,25.60
2022-09-01T05:03:45.571Z,25.60
2022-09-01T05:06:19.110Z,25.60
2022-09-01T05:08:48.210Z,25.60
2022-09-01T05:11:17.968Z,25.60
2022-09-01T05:13:48.150Z,25.60
2022-09-01T05:16:25.191Z,25.60
2022-09-01T05:18:55.878Z,25.60
2022-09-01T05:21:26.570Z,25.60
2022-09-01T05:23:55.488Z,25.60
2022-09-01T05:26:26.468Z,25.60
2022-09-01T05:28:56.644Z,25.60
2022-09-01T05:31:28.666Z,25.60
2022-09-01T05:33:58.353Z,25.60
2022-09-01T05:36:27.031Z,25.50
2022-09-01T05:38:57.236Z,25.60
2022-09-01T05:41:26.249Z,25.50
2022-09-01T05:44:00.019Z,25.50
2022-09-01T05:46:31.128Z,25.50
2022-09-01T05:48:59.890Z,25.60
2022-09-01T05:51:44.426Z,25.50
2022-09-01T05:54:15.084Z,25.60
2022-09-01T05:56:44.986Z,25.60
2022-09-01T05:59:23.415Z,25.60
2022-09-01T06:01:54.714Z,25.60
2022-09-01T06:04:25.721Z,25.60
2022-09-01T06:07:05.877Z,25.60
2022-09-01T06:09:39.473Z,25.70
2022-09-01T06:12:08.642Z,25.70
2022-09-01T06:14:37.042Z,25.70
2022-09-01T06:17:10.194Z,25.80
2022-09-01T06:19:40.087Z,25.70
2022-09-01T06:22:10.776Z,25.70
2022-09-01T06:24:44.168Z,25.70
2022-09-01T06:27:14.898Z,25.70
2022-09-01T06:29:43.330Z,25.70
2022-09-01T06:32:13.558Z,25.70
2022-09-01T06:34:44.665Z,25.80
2022-09-01T06:37:15.660Z,25.70
2022-09-01T06:39:44.196Z,25.70
2022-09-01T06:42:14.145Z,25.80
2022-09-01T06:44:42.721Z,25.80
2022-09-01T06:47:12.520Z,25.80
2022-09-01T06:49:41.220Z,25.80
2022-09-01T06:52:11.801Z,25.80
2022-09-01T06:54:43.903Z,25.80
2022-09-01T07:00:04.822Z,25.90
2022-09-01T07:02:35.159Z,25.80
2022-09-01T07:05:04.117Z,25.80
2022-09-01T07:10:24.150Z,25.80
2022-09-01T07:13:11.591Z,25.80
2022-09-01T07:18:32.101Z,25.90
2022-09-01T07:21:36.214Z,25.90
2022-09-01T07:24:13.474Z,25.90
2022-09-01T07:26:47.146Z,25.90
2022-09-01T07:29:16.705Z,25.90
2022-09-01T07:32:43.621Z,25.90
2022-09-01T07:34:39.676Z,25.90
2022-09-01T07:38:03.391Z,25.90
2022-09-01T07:39:57.076Z,25.90
2022-09-01T07:45:25.937Z,26.00
2022-09-01T07:47:55.016Z,26.00
2022-09-01T07:50:40.455Z,26.00
2022-09-01T07:53:11.320Z,26.00
2022-09-01T07:55:42.257Z,26.10
2022-09-01T07:58:13.507Z,26.10
2022-09-01T08:00:43.509Z,26.10
2022-09-01T08:03:12.526Z,26.10
2022-09-01T08:05:43.704Z,26.10
2022-09-01T08:08:21.054Z,26.10
2022-09-01T08:10:52.475Z,26.10
2022-09-01T08:13:22.260Z,26.10
2022-09-01T08:16:08.513Z,26.10
2022-09-01T08:18:52.841Z,26.10
2022-09-01T08:21:23.893Z,26.10
2022-09-01T08:23:53.397Z,26.20
2022-09-01T08:26:24.959Z,26.20
2022-09-01T08:28:55.544Z,26.20
2022-09-01T08:31:30.533Z,26.20
2022-09-01T08:34:00.686Z,26.20
2022-09-01T08:36:31.586Z,26.20
2022-09-01T08:39:00.226Z,26.20
2022-09-01T08:41:46.393Z,26.20
2022-09-01T08:44:30.551Z,26.20
2022-09-01T08:47:04.872Z,26.30
2022-09-01T08:49:44.310Z,26.30
2022-09-01T08:52:25.287Z,26.30
2022-09-01T08:54:57.932Z,26.30
2022-09-01T08:57:33.493Z,26.40
2022-09-01T09:00:02.399Z,26.30
2022-09-01T09:02:44.136Z,26.40
2022-09-01T09:05:29.470Z,26.40
2022-09-01T09:08:17.758Z,26.40
2022-09-01T09:11:00.977Z,26.40
2022-09-01T09:13:39.419Z,26.40
2022-09-01T09:16:12.170Z,26.40
2022-09-01T09:19:01.331Z,26.40
2022-09-01T09:21:34.884Z,26.50
2022-09-01T09:24:25.939Z,26.50
2022-09-01T09:26:58.929Z,26.50
2022-09-01T09:29:29.922Z,26.50
2022-09-01T09:32:22.492Z,26.50
2022-09-01T09:34:52.797Z,26.50
2022-09-01T09:37:27.744Z,26.50
2022-09-01T09:40:16.350Z,26.50
2022-09-01T09:43:06.486Z,26.50
2022-09-01T09:45:49.693Z,26.60
2022-09-01T09:48:31.514Z,26.50
2022-09-01T09:51:18.363Z,26.50
2022-09-01T09:53:47.910Z,26.60
2022-09-01T09:56:23.692Z,26.60
2022-09-01T09:58:53.958Z,26.60
2022-09-01T10:01:32.147Z,26.60
2022-09-01T10:04:03.856Z,26.60
2022-09-01T10:06:35.130Z,26.70
2022-09-01T10:09:06.191Z,26.70
2022-09-01T10:11:41.600Z,26.70
2022-09-01T10:14:23.564Z,26.80
2022-09-01T10:17:10.389Z,26.80
2022-09-01T10:19:42.101Z,26.80
2022-09-01T10:22:11.578Z,26.80
2022-09-01T10:24:45.388Z,26.90
2022-09-01T10:27:21.825Z,26.90
2022-09-01T10:32:55.286Z,26.90
2022-09-01T10:35:28.104Z,26.90
2022-09-01T10:37:59.160Z,26.90
2022-09-01T10:40:43.508Z,27.00
2022-09-01T10:43:53.010Z,27.00
2022-09-01T10:47:00.210Z,27.00
2022-09-01T10:52:54.978Z,27.10
2022-09-01T10:55:39.535Z,27.10
2022-09-01T11:02:27.715Z,27.20
2022-09-01T11:05:18.610Z,27.20
2022-09-01T11:08:18.262Z,27.20
2022-09-01T11:11:55.345Z,27.30
2022-09-01T11:18:26.203Z,27.50
2022-09-01T11:20:57.947Z,27.70
2022-09-01T11:23:29.604Z,27.90
2022-09-01T11:28:57.062Z,28.40
2022-09-01T11:31:40.142Z,28.70
2022-09-01T11:35:08.679Z,28.90
2022-09-01T11:37:56.624Z,29.10
2022-09-01T11:40:32.601Z,29.20
2022-09-01T11:43:05.640Z,29.50
2022-09-01T11:46:28.876Z,29.90
2022-09-01T11:49:57.681Z,29.90
2022-09-01T11:52:44.347Z,29.90
2022-09-01T11:55:52.638Z,30.10
2022-09-01T11:58:33.195Z,30.40
2022-09-01T12:01:16.797Z,30.70
2022-09-01T12:03:47.395Z,30.80
2022-09-01T12:06:23.892Z,31.00
2022-09-01T12:08:58.917Z,31.40
2022-09-01T12:11:31.911Z,31.80
2022-09-01T12:14:05.625Z,32.10
2022-09-01T12:16:43.512Z,32.40
2022-09-01T12:19:25.283Z,32.80
2022-09-01T12:22:04.622Z,33.10
2022-09-01T12:28:07.123Z,33.70
2022-09-01T12:30:41.881Z,34.00
2022-09-01T12:33:29.353Z,34.30
2022-09-01T12:36:21.830Z,34.50
2022-09-01T12:39:58.937Z,34.90
2022-09-01T12:42:40.740Z,35.10
2022-09-01T12:45:39.314Z,35.40
2022-09-01T12:48:09.389Z,35.50
2022-09-01T12:50:48.248Z,35.50
2022-09-01T12:53:30.541Z,35.40
2022-09-01T12:56:35.996Z,35.30
2022-09-01T12:59:53.653Z,35.10
2022-09-01T13:02:41.134Z,34.80
2022-09-01T13:05:32.075Z,34.60
2022-09-01T13:08:04.286Z,34.40
2022-09-01T13:10:38.481Z,34.30
2022-09-01T13:13:08.303Z,34.00
2022-09-01T13:15:39.107Z,33.90
2022-09-01T13:18:09.255Z,33.70
2022-09-01T13:20:38.139Z,33.50
2022-09-01T13:23:07.049Z,33.30
2022-09-01T13:25:36.192Z,33.10
2022-09-01T13:28:07.273Z,33.00
2022-09-01T13:30:37.225Z,33.00
2022-09-01T13:33:22.764Z,33.10
2022-09-01T13:35:54.022Z,33.30
2022-09-01T13:38:23.393Z,33.50
2022-09-01T13:40:54.741Z,33.60
2022-09-01T13:43:26.765Z,33.70
2022-09-01T13:45:55.857Z,33.90
2022-09-01T13:49:01.768Z,34.00
2022-09-01T13:51:18.186Z,34.10
2022-09-01T13:53:47.084Z,34.10
2022-09-01T13:56:15.561Z,34.00
2022-09-01T13:58:44.695Z,33.90
2022-09-01T14:01:15.966Z,33.90
2022-09-01T14:03:45.465Z,33.90
2022-09-01T14:06:17.772Z,34.00
2022-09-01T14:08:47.042Z,34.10
2022-09-01T14:11:20.064Z,34.40
2022-09-01T14:19:09.398Z,35.20
2022-09-01T14:21:40.962Z,35.10
2022-09-01T14:24:09.653Z,34.90
2022-09-01T14:26:37.716Z,34.70
2022-09-01T14:29:06.938Z,34.80
2022-09-01T14:31:37.870Z,34.90
2022-09-01T14:34:06.997Z,35.20
2022-09-01T14:36:35.609Z,35.30
2022-09-01T14:39:05.883Z,35.40
2022-09-01T14:41:35.608Z,35.50
2022-09-01T14:44:05.262Z,35.60
2022-09-01T14:46:35.032Z,35.50
2022-09-01T14:49:04.296Z,35.50
2022-09-01T14:54:24.556Z,35.40
2022-09-01T14:59:42.248Z,35.30
2022-09-01T15:02:11.740Z,35.20
2022-09-01T15:04:40.892Z,35.10
2022-09-01T15:07:09.909Z,35.00
2022-09-01T15:09:39.942Z,34.90
2022-09-01T15:12:09.639Z,34.70
2022-09-01T15:14:38.187Z,34.60
2022-09-01T15:17:07.184Z,34.50
2022-09-01T15:19:36.491Z,34.30
2022-09-01T15:22:07.382Z,34.20
2022-09-01T15:24:35.859Z,34.10
2022-09-01T15:27:07.079Z,33.90
2022-09-01T15:29:39.779Z,33.80
2022-09-01T15:32:08.222Z,33.70
2022-09-01T15:34:50.110Z,33.50
2022-09-01T15:37:18.799Z,33.40
2022-09-01T15:39:47.817Z,33.30
2022-09-01T15:42:18.547Z,33.20
2022-09-01T15:44:47.804Z,33.10
2022-09-01T15:47:16.251Z,33.00
2022-09-01T15:53:08.928Z,32.90
2022-09-01T15:55:42.136Z,32.70
2022-09-01T15:58:13.292Z,32.60
2022-09-01T16:00:42.834Z,32.50
2022-09-01T16:03:11.533Z,32.40
2022-09-01T16:05:43.064Z,32.40
2022-09-01T16:08:11.777Z,32.30
2022-09-01T16:10:42.443Z,32.20
2022-09-01T16:13:13.229Z,32.10
2022-09-01T16:15:47.876Z,32.10
2022-09-01T16:18:29.929Z,32.00
2022-09-01T16:21:05.075Z,31.90
2022-09-01T16:23:40.854Z,31.90
2022-09-01T16:26:09.458Z,31.80
2022-09-01T16:28:40.100Z,31.70
2022-09-01T16:31:13.474Z,31.70
2022-09-01T16:33:49.365Z,31.60
2022-09-01T16:36:36.053Z,31.50
2022-09-01T16:39:13.783Z,31.50
2022-09-01T16:41:52.850Z,31.40
2022-09-01T16:44:38.873Z,31.30
2022-09-01T16:47:21.234Z,31.30
2022-09-01T16:49:55.496Z,31.20
2022-09-01T16:52:29.261Z,31.10
2022-09-01T16:55:13.237Z,31.10
2022-09-01T16:57:59.057Z,31.10
2022-09-01T17:00:39.418Z,31.10
2022-09-01T17:03:19.241Z,31.00
2022-09-01T17:05:57.308Z,30.90
2022-09-01T17:08:31.214Z,30.80
2022-09-01T17:11:09.973Z,30.80
2022-09-01T17:13:42.000Z,30.70
2022-09-01T17:16:18.940Z,30.70
2022-09-01T17:18:51.868Z,30.60
2022-09-01T17:21:23.941Z,30.60
2022-09-01T17:23:58.892Z,30.60
2022-09-01T17:26:31.045Z,30.50
2022-09-01T17:29:03.654Z,30.50
2022-09-01T17:31:51.926Z,30.40
2022-09-01T17:34:30.915Z,30.40
2022-09-01T17:37:11.879Z,30.40
2022-09-01T17:39:56.106Z,30.30
2022-09-01T17:42:32.835Z,30.30
2022-09-01T17:45:13.135Z,30.20
2022-09-01T17:47:56.907Z,30.20
2022-09-01T17:50:32.868Z,30.10
2022-09-01T17:53:10.165Z,30.10
2022-09-01T17:55:50.134Z,30.00
2022-09-01T17:58:40.489Z,30.00
2022-09-01T18:01:15.218Z,29.90
2022-09-01T18:04:06.161Z,29.90
2022-09-01T18:06:47.945Z,29.90
2022-09-01T18:09:19.628Z,29.90
2022-09-01T18:11:52.661Z,29.80
2022-09-01T18:14:26.223Z,29.80
2022-09-01T18:17:02.008Z,29.80
2022-09-01T18:19:37.916Z,29.70
2022-09-01T18:22:10.946Z,29.70
2022-09-01T18:24:49.118Z,29.70
2022-09-01T18:27:17.815Z,29.60
2022-09-01T18:29:49.432Z,29.60
2022-09-01T18:32:30.346Z,29.60
2022-09-01T18:35:33.937Z,29.60
2022-09-01T18:38:24.827Z,29.50
2022-09-01T18:41:09.429Z,29.50
2022-09-01T18:43:43.120Z,29.40
2022-09-01T18:46:19.909Z,29.40
2022-09-01T18:49:05.438Z,29.40
2022-09-01T18:51:52.351Z,29.40
2022-09-01T18:54:24.950Z,29.40
2022-09-01T18:56:58.970Z,29.40
2022-09-01T18:59:52.339Z,29.30
2022-09-01T19:02:34.924Z,29.30
2022-09-01T19:05:11.054Z,29.20
2022-09-01T19:07:49.527Z,29.20
2022-09-01T19:10:21.331Z,29.20
2022-09-01T19:12:55.328Z,29.20
2022-09-01T19:15:31.417Z,29.20
2022-09-01T19:18:14.785Z,29.20
2022-09-01T19:20:51.115Z,29.10
2022-09-01T19:23:30.173Z,29.10
2022-09-01T19:26:05.906Z,29.10
2022-09-01T19:28:43.241Z,29.00
2022-09-01T19:31:22.456Z,29.00
2022-09-01T19:33:53.620Z,29.00
2022-09-01T19:36:26.934Z,28.90
2022-09-01T19:38:56.870Z,29.00
2022-09-01T19:41:29.860Z,28.90
2022-09-01T19:44:08.375Z,28.90
2022-09-01T19:46:42.876Z,28.90
2022-09-01T19:49:23.360Z,28.80
2022-09-01T19:52:00.765Z,28.80
2022-09-01T19:54:40.871Z,28.80
2022-09-01T19:57:22.467Z,28.80
2022-09-01T20:00:00.677Z,28.80
2022-09-01T20:02:33.498Z,28.80
2022-09-01T20:05:12.942Z,28.70
2022-09-01T20:07:46.196Z,28.70
2022-09-01T20:10:28.412Z,28.70
2022-09-01T20:13:14.717Z,28.70
2022-09-01T20:15:50.249Z,28.70
2022-09-01T20:18:26.319Z,28.60
2022-09-01T20:20:57.297Z,28.60
2022-09-01T20:23:29.574Z,28.50
2022-09-01T20:26:04.288Z,28.50
2022-09-01T20:28:42.677Z,28.50
2022-09-01T20:31:17.594Z,28.50
2022-09-01T20:33:49.969Z,28.50
2022-09-01T20:36:24.696Z,28.40
2022-09-01T20:39:15.848Z,28.40
2022-09-01T20:41:56.316Z,28.40
2022-09-01T20:44:33.134Z,28.40
2022-09-01T20:47:01.502Z,28.40
2022-09-01T20:49:30.031Z,28.30
2022-09-01T20:52:06.731Z,28.30
2022-09-01T20:54:40.338Z,28.30
2022-09-01T20:57:21.049Z,28.30
2022-09-01T20:59:52.087Z,28.20
2022-09-01T21:02:34.611Z,28.20
2022-09-01T21:05:13.438Z,28.20
2022-09-01T21:07:50.496Z,28.20
2022-09-01T21:10:27.227Z,28.10
2022-09-01T21:13:10.724Z,28.10
2022-09-01T21:15:45.621Z,28.10
2022-09-01T21:18:28.910Z,28.00
2022-09-01T21:21:04.149Z,28.00
2022-09-01T21:23:32.937Z,28.10
2022-09-01T21:26:01.845Z,28.00
2022-09-01T21:28:32.066Z,28.00
2022-09-01T21:31:02.224Z,28.00
2022-09-01T21:33:33.112Z,27.90
2022-09-01T21:36:01.908Z,28.00
2022-09-01T21:38:30.756Z,27.90
2022-09-01T21:41:01.990Z,27.90
2022-09-01T21:43:34.735Z,27.90
2022-09-01T21:46:03.536Z,27.90
2022-09-01T21:48:32.490Z,27.90
2022-09-01T21:51:00.858Z,27.90
2022-09-01T21:53:29.254Z,27.90
2022-09-01T21:55:57.818Z,27.90
2022-09-01T21:58:26.225Z,27.90
2022-09-01T22:00:56.879Z,27.80
2022-09-01T22:03:25.387Z,27.80
2022-09-01T22:05:53.938Z,27.80
2022-09-01T22:08:23.052Z,27.70
2022-09-01T22:10:54.531Z,27.70
2022-09-01T22:13:25.783Z,27.70
2022-09-01T22:15:56.815Z,27.70
2022-09-01T22:18:25.198Z,27.70
2022-09-01T22:21:02.884Z,27.60
2022-09-01T22:23:31.245Z,27.60
2022-09-01T22:25:59.841Z,27.60
2022-09-01T22:28:28.464Z,27.50
2022-09-01T22:30:58.295Z,27.50
2022-09-01T22:33:27.307Z,27.50
2022-09-01T22:35:57.782Z,27.50
2022-09-01T22:38:26.193Z,27.50
2022-09-01T22:40:57.281Z,27.50
2022-09-01T22:43:27.159Z,27.40
2022-09-01T22:45:58.292Z,27.40
2022-09-01T22:48:27.912Z,27.40
2022-09-01T22:50:56.363Z,27.40
2022-09-01T22:53:24.821Z,27.40
2022-09-01T22:55:54.178Z,27.40
2022-09-01T22:58:23.307Z,27.40
2022-09-01T23:00:55.971Z,27.40
2022-09-01T23:03:26.046Z,27.30
2022-09-01T23:06:06.540Z,27.40
2022-09-01T23:08:36.858Z,27.30
2022-09-01T23:11:05.879Z,27.40
2022-09-01T23:13:35.417Z,27.30
2022-09-01T23:16:06.621Z,27.30
2022-09-01T23:18:38.519Z,27.30
2022-09-01T23:21:08.823Z,27.30
2022-09-01T23:23:37.412Z,27.30
2022-09-01T23:26:07.919Z,27.20
2022-09-01T23:28:36.827Z,27.20
2022-09-01T23:31:08.787Z,27.20
2022-09-01T23:33:38.731Z,27.20
2022-09-01T23:36:09.663Z,27.20
2022-09-01T23:38:38.494Z,27.20
2022-09-01T23:41:08.925Z,27.20
2022-09-01T23:43:38.268Z,27.10
2022-09-01T23:46:08.168Z,27.10
2022-09-01T23:48:38.033Z,27.10
2022-09-01T23:51:09.763Z,27.10
2022-09-01T23:53:40.291Z,27.10
2022-09-01T23:56:12.296Z,27.10
2022-09-01T23:58:41.264Z,27.10
